createdAt,value
2018-09-21T00:02:05.432Z,13.87
2018-09-21T00:04:34.205Z,16.23
2018-09-21T00:07:03.032Z,19.20
2018-09-21T00:09:31.177Z,19.43
2018-09-21T00:11:59.930Z,20.43
2018-09-21T00:14:28.053Z,14.93
2018-09-21T00:16:56.851Z,27.00
2018-09-21T00:19:25.304Z,15.93
2018-09-21T00:21:54.089Z,17.43
2018-09-21T00:24:22.900Z,23.17
2018-09-21T00:26:51.725Z,13.17
2018-09-21T00:29:19.900Z,15.23
2018-09-21T00:31:48.375Z,21.37
2018-09-21T00:34:17.361Z,16.23
2018-09-21T00:36:45.889Z,16.13
2018-09-21T00:39:14.728Z,13.47
2018-09-21T00:41:43.623Z,17.27
2018-09-21T00:44:12.072Z,14.67
2018-09-21T00:46:40.917Z,15.43
2018-09-21T00:49:09.387Z,16.83
2018-09-21T00:51:37.844Z,16.67
2018-09-21T00:54:06.269Z,14.03
2018-09-21T00:56:35.084Z,16.03
2018-09-21T00:59:03.264Z,20.70
2018-09-21T01:01:32.075Z,16.03
2018-09-21T01:04:00.509Z,16.83
2018-09-21T01:06:30.407Z,16.80
2018-09-21T01:08:59.239Z,19.40
2018-09-21T01:11:27.645Z,17.13
2018-09-21T01:13:56.532Z,20.70
2018-09-21T01:16:25.353Z,17.87
2018-09-21T01:18:53.816Z,18.20
2018-09-21T01:21:22.283Z,18.57
2018-09-21T01:23:50.729Z,15.20
2018-09-21T01:26:19.517Z,14.80
2018-09-21T01:28:48.344Z,16.83
2018-09-21T01:31:17.172Z,16.87
2018-09-21T01:33:46.019Z,13.43
2018-09-21T01:36:14.463Z,16.93
2018-09-21T01:38:43.333Z,15.63
2018-09-21T01:41:11.816Z,16.93
2018-09-21T01:43:40.612Z,19.77
2018-09-21T01:46:09.816Z,14.07
2018-09-21T01:48:38.593Z,15.80
2018-09-21T01:51:07.120Z,17.17
2018-09-21T01:53:36.108Z,13.90
2018-09-21T01:56:04.987Z,13.47
2018-09-21T01:58:33.782Z,17.90
2018-09-21T02:01:02.279Z,17.07
2018-09-21T02:03:30.752Z,16.00
2018-09-21T02:05:59.603Z,15.27
2018-09-21T02:08:28.334Z,15.73
2018-09-21T02:10:57.123Z,16.97
2018-09-21T02:13:25.976Z,14.23
2018-09-21T02:15:54.820Z,15.13
2018-09-21T02:18:23.305Z,16.67
2018-09-21T02:20:51.807Z,13.87
2018-09-21T02:23:20.960Z,15.70
2018-09-21T02:25:49.526Z,15.73
2018-09-21T02:28:18.348Z,15.50
2018-09-21T02:30:46.846Z,16.50
2018-09-21T02:33:15.264Z,20.90
2018-09-21T02:35:43.678Z,15.50
2018-09-21T02:38:12.462Z,13.97
2018-09-21T02:40:41.224Z,14.33
2018-09-21T02:43:10.293Z,16.20
2018-09-21T02:45:39.091Z,15.53
2018-09-21T02:48:07.965Z,16.40
2018-09-21T02:50:36.398Z,17.60
2018-09-21T02:53:05.172Z,14.33
2018-09-21T02:55:33.963Z,13.63
2018-09-21T02:58:02.423Z,15.37
2018-09-21T03:00:31.307Z,16.90
2018-09-21T03:03:00.261Z,14.77
2018-09-21T03:05:28.731Z,14.40
2018-09-21T03:07:57.558Z,13.97
2018-09-21T03:10:26.029Z,15.17
2018-09-21T03:12:54.767Z,15.90
2018-09-21T03:15:23.243Z,13.20
2018-09-21T03:17:52.092Z,16.90
2018-09-21T03:20:20.239Z,15.30
2018-09-21T03:22:49.113Z,16.67
2018-09-21T03:25:17.248Z,18.93
2018-09-21T03:27:45.683Z,15.50
2018-09-21T03:30:14.368Z,14.77
2018-09-21T03:32:43.203Z,18.93
2018-09-21T03:35:11.854Z,15.27
2018-09-21T03:37:40.825Z,19.23
2018-09-21T03:40:09.207Z,16.73
2018-09-21T03:42:37.768Z,15.83
2018-09-21T03:45:06.361Z,21.13
2018-09-21T03:47:35.183Z,14.20
2018-09-21T03:50:03.304Z,18.00
2018-09-21T03:52:32.533Z,20.07
2018-09-21T03:55:01.590Z,14.77
2018-09-21T03:57:30.033Z,15.70
2018-09-21T03:59:58.806Z,16.33
2018-09-21T04:02:27.593Z,16.63
2018-09-21T04:04:56.574Z,16.40
2018-09-21T04:07:25.037Z,17.47
2018-09-21T04:09:53.457Z,15.67
2018-09-21T04:12:21.935Z,17.57
2018-09-21T04:14:50.693Z,16.63
2018-09-21T04:17:19.175Z,17.47
2018-09-21T04:19:47.868Z,16.73
2018-09-21T04:22:16.323Z,15.30
2018-09-21T04:24:45.442Z,24.07
2018-09-21T04:27:13.986Z,16.27
2018-09-21T04:29:42.446Z,16.60
2018-09-21T04:32:11.243Z,19.70
2018-09-21T04:34:39.663Z,16.80
2018-09-21T04:37:08.168Z,16.17
2018-09-21T04:39:37.036Z,18.13
2018-09-21T04:42:05.807Z,23.90
2018-09-21T04:44:34.641Z,16.20
2018-09-21T04:47:03.497Z,18.63
2018-09-21T04:49:32.272Z,40.23
2018-09-21T04:52:00.793Z,18.53
2018-09-21T04:54:29.277Z,14.93
2018-09-21T04:56:58.027Z,18.87
2018-09-21T04:59:28.779Z,27.70
2018-09-21T05:01:57.250Z,18.13
2018-09-21T05:04:26.280Z,17.97
2018-09-21T05:06:55.025Z,20.97
2018-09-21T05:09:23.498Z,17.57
2018-09-21T05:11:52.284Z,17.63
2018-09-21T05:14:21.096Z,20.40
2018-09-21T05:16:49.605Z,23.43
2018-09-21T05:19:18.894Z,17.27
2018-09-21T05:21:47.369Z,16.13
2018-09-21T05:24:16.190Z,21.80
2018-09-21T05:26:45.036Z,20.70
2018-09-21T05:29:16.511Z,20.63
2018-09-21T05:31:45.358Z,16.20
2018-09-21T05:34:14.200Z,14.97
2018-09-21T05:36:42.744Z,20.73
2018-09-21T05:39:14.402Z,13.30
2018-09-21T05:41:43.087Z,20.20
2018-09-21T05:44:12.233Z,16.17
2018-09-21T05:46:41.934Z,16.23
2018-09-21T05:49:10.815Z,22.57
2018-09-21T05:51:39.666Z,16.67
2018-09-21T05:54:08.530Z,16.07
2018-09-21T05:56:37.364Z,14.20
2018-09-21T05:59:05.758Z,13.83
2018-09-21T06:01:34.571Z,13.33
2018-09-21T06:04:03.415Z,17.80
2018-09-21T06:06:31.891Z,12.00
2018-09-21T06:09:00.051Z,21.93
2018-09-21T06:11:28.858Z,15.50
2018-09-21T06:13:57.398Z,13.20
2018-09-21T06:16:26.015Z,15.00
2018-09-21T06:18:54.873Z,15.80
2018-09-21T06:21:22.983Z,15.70
2018-09-21T06:23:51.511Z,13.03
2018-09-21T06:26:20.358Z,22.40
2018-09-21T06:28:49.120Z,12.80
2018-09-21T06:31:17.522Z,16.40
2018-09-21T06:33:46.001Z,16.80
2018-09-21T06:36:14.525Z,15.00
2018-09-21T06:38:42.700Z,13.80
2018-09-21T06:41:11.497Z,19.10
2018-09-21T06:43:40.034Z,11.70
2018-09-21T06:46:08.513Z,14.97
2018-09-21T06:48:37.078Z,13.27
2018-09-21T06:51:05.808Z,14.03
2018-09-21T06:53:34.066Z,11.67
2018-09-21T06:56:02.931Z,15.17
2018-09-21T06:58:31.446Z,13.00
2018-09-21T07:00:59.893Z,11.63
2018-09-21T07:03:28.442Z,15.73
2018-09-21T07:05:57.463Z,12.13
2018-09-21T07:08:26.331Z,15.40
2018-09-21T07:10:55.036Z,11.83
2018-09-21T07:13:23.288Z,12.20
2018-09-21T07:15:51.619Z,11.70
2018-09-21T07:18:20.613Z,13.00
2018-09-21T07:20:49.513Z,12.00
2018-09-21T07:23:18.056Z,13.50
2018-09-21T07:25:46.954Z,16.00
2018-09-21T07:28:15.719Z,12.83
2018-09-21T07:30:44.426Z,14.67
2018-09-21T07:33:12.882Z,14.07
2018-09-21T07:35:41.664Z,11.33
2018-09-21T07:38:10.529Z,11.57
2018-09-21T07:40:38.998Z,11.13
2018-09-21T07:43:07.145Z,11.77
2018-09-21T07:45:36.203Z,13.77
2018-09-21T07:48:04.728Z,10.70
2018-09-21T07:50:33.193Z,13.17
2018-09-21T07:53:01.875Z,10.20
2018-09-21T07:55:30.727Z,12.23
2018-09-21T07:57:59.203Z,12.53
2018-09-21T08:00:27.665Z,12.77
2018-09-21T08:02:56.501Z,15.03
2018-09-21T08:05:30.783Z,14.23
2018-09-21T08:07:59.784Z,19.07
2018-09-21T08:10:28.606Z,14.00
2018-09-21T08:12:57.105Z,9.97
2018-09-21T08:15:26.061Z,7.70
2018-09-21T08:17:54.588Z,9.20
2018-09-21T08:20:23.245Z,7.80
2018-09-21T08:22:51.612Z,8.40
2018-09-21T08:25:20.115Z,10.43
2018-09-21T08:27:48.882Z,7.67
2018-09-21T08:30:17.355Z,13.57
2018-09-21T08:32:45.771Z,9.03
2018-09-21T08:35:14.017Z,8.80
2018-09-21T08:37:42.795Z,9.87
2018-09-21T08:40:11.412Z,8.93
2018-09-21T08:42:39.932Z,11.33
2018-09-21T08:45:08.591Z,10.73
2018-09-21T08:47:37.371Z,10.67
2018-09-21T08:50:06.732Z,9.60
2018-09-21T08:52:35.437Z,11.47
2018-09-21T08:55:03.980Z,9.90
2018-09-21T08:57:32.537Z,7.60
2018-09-21T09:00:00.983Z,9.67
2018-09-21T09:02:29.503Z,9.03
2018-09-21T09:04:58.584Z,7.27
2018-09-21T09:07:27.422Z,10.13
2018-09-21T09:09:55.935Z,11.47
2018-09-21T09:12:24.418Z,12.73
2018-09-21T09:14:53.204Z,11.40
2018-09-21T09:17:22.225Z,7.17
2018-09-21T09:19:51.426Z,13.93
2018-09-21T09:22:20.211Z,8.23
2018-09-21T09:24:48.966Z,14.83
2018-09-21T09:27:17.713Z,13.50
2018-09-21T09:29:46.603Z,11.97
2018-09-21T09:32:15.084Z,10.40
2018-09-21T09:34:43.871Z,7.70
2018-09-21T09:37:12.704Z,10.70
2018-09-21T09:39:41.332Z,10.50
2018-09-21T09:42:10.309Z,11.70
2018-09-21T09:44:39.136Z,6.97
2018-09-21T09:47:07.621Z,10.83
2018-09-21T09:49:36.461Z,9.03
2018-09-21T09:52:04.894Z,10.20
2018-09-21T09:54:33.696Z,8.40
2018-09-21T09:57:02.536Z,10.60
2018-09-21T09:59:30.975Z,9.60
2018-09-21T10:02:00.055Z,8.70
2018-09-21T10:04:28.993Z,14.90
2018-09-21T10:06:57.972Z,13.10
2018-09-21T10:09:26.627Z,11.03
2018-09-21T10:11:54.788Z,13.30
2018-09-21T10:14:23.607Z,10.90
2018-09-21T10:16:52.338Z,10.57
2018-09-21T10:19:21.145Z,7.70
2018-09-21T10:21:49.987Z,10.80
2018-09-21T10:24:18.269Z,8.77
2018-09-21T10:26:47.646Z,10.60
2018-09-21T10:29:16.036Z,10.53
2018-09-21T10:31:45.178Z,11.30
2018-09-21T10:34:13.987Z,11.30
2018-09-21T10:36:42.866Z,11.77
2018-09-21T10:39:11.390Z,17.23
2018-09-21T10:41:41.179Z,10.57
2018-09-21T10:44:09.730Z,12.40
2018-09-21T10:46:38.484Z,13.33
2018-09-21T10:49:07.006Z,9.20
2018-09-21T10:51:35.530Z,9.80
2018-09-21T10:54:05.065Z,9.37
2018-09-21T10:56:34.535Z,10.23
2018-09-21T10:59:03.043Z,9.93
2018-09-21T11:01:31.809Z,8.37
2018-09-21T11:04:00.210Z,11.87
2018-09-21T11:06:29.121Z,16.27
2018-09-21T11:08:57.929Z,11.63
2018-09-21T11:11:26.841Z,12.13
2018-09-21T11:13:55.651Z,7.93
2018-09-21T11:16:24.478Z,10.40
2018-09-21T11:18:53.253Z,12.57
2018-09-21T11:21:22.069Z,13.43
2018-09-21T11:23:50.548Z,13.03
2018-09-21T11:26:19.304Z,10.63
2018-09-21T11:28:48.879Z,9.80
2018-09-21T11:31:18.611Z,11.23
2018-09-21T11:33:47.042Z,11.50
2018-09-21T11:36:15.851Z,11.40
2018-09-21T11:38:44.673Z,12.67
2018-09-21T11:41:13.444Z,12.93
2018-09-21T11:43:42.261Z,21.70
2018-09-21T11:46:10.789Z,13.63
2018-09-21T11:48:39.448Z,15.03
2018-09-21T11:51:08.069Z,11.53
2018-09-21T11:53:36.867Z,12.03
2018-09-21T11:56:05.610Z,19.37
2018-09-21T11:58:34.084Z,21.80
2018-09-21T12:01:02.866Z,36.83
2018-09-21T12:03:31.052Z,17.33
2018-09-21T12:05:59.925Z,20.50
2018-09-21T12:08:28.462Z,21.37
2018-09-21T12:10:57.288Z,17.27
2018-09-21T12:13:26.096Z,10.40
2018-09-21T12:15:54.970Z,11.57
2018-09-21T12:18:23.865Z,17.57
2018-09-21T12:20:52.664Z,15.30
2018-09-21T12:23:21.130Z,12.90
2018-09-21T12:25:49.584Z,13.60
2018-09-21T12:28:17.788Z,15.47
2018-09-21T12:30:46.660Z,14.70
2018-09-21T12:33:15.824Z,17.70
2018-09-21T12:35:44.878Z,14.53
2018-09-21T12:38:14.560Z,15.93
2018-09-21T12:40:43.450Z,22.57
2018-09-21T12:43:12.283Z,13.53
2018-09-21T12:45:41.055Z,12.70
2018-09-21T12:48:09.566Z,24.93
2018-09-21T12:50:38.143Z,23.93
2018-09-21T12:53:06.815Z,27.93
2018-09-21T12:55:35.566Z,22.77
2018-09-21T12:58:04.502Z,22.50
2018-09-21T13:00:39.105Z,39.17
2018-09-21T13:03:07.564Z,21.30
2018-09-21T13:05:36.453Z,28.70
2018-09-21T13:08:05.452Z,17.80
2018-09-21T13:10:34.236Z,36.93
2018-09-21T13:13:03.108Z,23.23
2018-09-21T13:15:31.982Z,21.37
2018-09-21T13:18:00.217Z,21.73
2018-09-21T13:20:29.260Z,23.30
2018-09-21T13:22:58.026Z,15.00
2018-09-21T13:25:26.559Z,19.13
2018-09-21T13:27:56.163Z,27.67
2018-09-21T13:30:24.948Z,15.17
2018-09-21T13:32:53.739Z,23.07
2018-09-21T13:35:22.572Z,13.57
2018-09-21T13:37:50.693Z,26.40
2018-09-21T13:40:19.409Z,13.70
2018-09-21T13:42:47.951Z,15.47
2018-09-21T13:45:16.427Z,16.97
2018-09-21T13:47:45.253Z,20.37
2018-09-21T13:50:13.990Z,13.57
2018-09-21T13:52:42.766Z,20.10
2018-09-21T13:55:11.549Z,19.40
2018-09-21T13:57:40.059Z,12.70
2018-09-21T14:00:08.558Z,9.73
2018-09-21T14:02:37.355Z,21.70
2018-09-21T14:05:05.961Z,19.30
2018-09-21T14:07:34.449Z,16.77
2018-09-21T14:10:02.661Z,14.27
2018-09-21T14:12:31.483Z,13.87
2018-09-21T14:14:59.952Z,15.27
2018-09-21T14:17:28.358Z,19.17
2018-09-21T14:19:57.364Z,17.67
2018-09-21T14:22:25.925Z,19.47
2018-09-21T14:24:54.778Z,12.00
2018-09-21T14:27:23.598Z,10.70
2018-09-21T14:29:52.068Z,21.80
2018-09-21T14:32:20.880Z,17.80
2018-09-21T14:34:49.363Z,12.73
2018-09-21T14:37:17.819Z,13.73
2018-09-21T14:39:47.060Z,13.33
2018-09-21T14:42:15.535Z,17.03
2018-09-21T14:44:44.958Z,12.23
2018-09-21T14:47:13.779Z,20.20
2018-09-21T14:49:42.637Z,143.53
2018-09-21T14:52:11.066Z,114.53
2018-09-21T14:54:39.654Z,73.30
2018-09-21T14:57:08.295Z,37.70
2018-09-21T14:59:37.093Z,36.03
2018-09-21T15:02:05.470Z,30.03
2018-09-21T15:04:34.261Z,63.57
2018-09-21T15:07:02.721Z,30.70
2018-09-21T15:09:31.398Z,67.70
2018-09-21T15:11:59.490Z,13.07
2018-09-21T15:14:28.171Z,12.20
2018-09-21T15:16:57.151Z,21.63
2018-09-21T15:19:26.042Z,7.83
2018-09-21T15:21:54.467Z,4.47
2018-09-21T15:24:22.973Z,5.37
2018-09-21T15:26:51.751Z,6.57
2018-09-21T15:29:20.519Z,6.97
2018-09-21T15:31:49.273Z,7.40
2018-09-21T15:34:18.753Z,9.10
2018-09-21T15:36:47.555Z,8.63
2018-09-21T15:39:16.384Z,4.13
2018-09-21T15:41:45.225Z,6.20
2018-09-21T15:44:13.337Z,3.90
2018-09-21T15:46:42.112Z,5.23
2018-09-21T15:49:11.039Z,4.43
2018-09-21T15:51:39.843Z,13.63
2018-09-21T15:54:08.677Z,5.13
2018-09-21T15:56:37.467Z,9.83
2018-09-21T15:59:06.064Z,5.62
2018-09-21T16:01:34.542Z,7.67
2018-09-21T16:04:03.611Z,7.28
2018-09-21T16:06:33.237Z,6.00
2018-09-21T16:09:02.427Z,3.50
2018-09-21T16:11:30.952Z,5.23
2018-09-21T16:13:59.959Z,7.42
2018-09-21T16:16:28.694Z,8.75
2018-09-21T16:18:57.397Z,6.95
2018-09-21T16:21:26.396Z,6.45
2018-09-21T16:23:55.488Z,8.10
2018-09-21T16:26:24.510Z,4.62
2018-09-21T16:28:53.858Z,5.33
2018-09-21T16:31:22.612Z,3.20
2018-09-21T16:33:51.363Z,4.30
2018-09-21T16:36:20.557Z,5.30
2018-09-21T16:38:49.718Z,7.28
2018-09-21T16:41:18.589Z,6.80
2018-09-21T16:43:47.783Z,3.90
2018-09-21T16:46:16.854Z,3.50
2018-09-21T16:48:45.716Z,7.62
2018-09-21T16:51:14.974Z,3.45
2018-09-21T16:53:44.159Z,4.22
2018-09-21T16:56:13.503Z,9.00
2018-09-21T16:58:42.676Z,7.97
2018-09-21T17:01:11.811Z,3.90
2018-09-21T17:03:40.814Z,10.82
2018-09-21T17:06:09.877Z,9.35
2018-09-21T17:08:39.040Z,7.72
2018-09-21T17:11:07.604Z,6.58
2018-09-21T17:13:37.231Z,6.37
2018-09-21T17:16:05.589Z,6.45
2018-09-21T17:18:34.673Z,7.40
2018-09-21T17:21:03.837Z,6.00
2018-09-21T17:23:33.002Z,6.03
2018-09-21T17:26:01.761Z,7.37
2018-09-21T17:28:30.545Z,7.08
2018-09-21T17:30:59.343Z,8.58
2018-09-21T17:33:28.042Z,3.77
2018-09-21T17:35:57.082Z,4.58
2018-09-21T17:38:26.204Z,5.20
2018-09-21T17:40:54.937Z,3.85
2018-09-21T17:43:23.683Z,7.10
2018-09-21T17:45:52.892Z,9.00
2018-09-21T17:48:21.989Z,6.33
2018-09-21T17:50:50.523Z,10.70
2018-09-21T17:53:19.689Z,7.15
2018-09-21T17:55:48.788Z,5.22
2018-09-21T17:58:17.924Z,6.62
2018-09-21T18:00:47.402Z,6.80
2018-09-21T18:03:16.498Z,8.78
2018-09-21T18:05:45.281Z,8.78
2018-09-21T18:08:14.038Z,9.75
2018-09-21T18:10:43.121Z,14.68
2018-09-21T18:13:11.508Z,10.28
2018-09-21T18:15:40.178Z,9.48
2018-09-21T18:18:09.317Z,5.85
2018-09-21T18:20:38.383Z,8.25
2018-09-21T18:23:07.174Z,6.80
2018-09-21T18:25:35.942Z,11.40
2018-09-21T18:28:05.455Z,9.88
2018-09-21T18:30:34.592Z,10.32
2018-09-21T18:33:03.613Z,10.25
2018-09-21T18:35:32.371Z,6.45
2018-09-21T18:38:01.439Z,10.08
2018-09-21T18:40:30.498Z,7.28
2018-09-21T18:42:59.264Z,8.78
2018-09-21T18:45:27.969Z,12.82
2018-09-21T18:47:57.213Z,8.88
2018-09-21T18:50:26.337Z,11.35
2018-09-21T18:52:55.479Z,9.25
2018-09-21T18:55:24.628Z,6.30
2018-09-21T18:57:53.587Z,8.20
2018-09-21T19:00:22.613Z,11.40
2018-09-21T19:02:51.590Z,6.72
2018-09-21T19:05:20.669Z,8.30
2018-09-21T19:07:49.383Z,7.37
2018-09-21T19:10:18.175Z,12.95
2018-09-21T19:12:46.608Z,10.82
2018-09-21T19:15:15.690Z,9.73
2018-09-21T19:17:44.752Z,8.58
2018-09-21T19:20:13.773Z,9.63
2018-09-21T19:22:42.841Z,8.70
2018-09-21T19:25:11.543Z,15.70
2018-09-21T19:27:40.641Z,8.55
2018-09-21T19:30:09.335Z,9.20
2018-09-21T19:32:38.034Z,8.18
2018-09-21T19:35:06.820Z,11.93
2018-09-21T19:37:35.897Z,10.23
2018-09-21T19:40:06.000Z,10.88
2018-09-21T19:42:34.978Z,9.18
2018-09-21T19:45:03.668Z,10.32
2018-09-21T19:47:32.859Z,7.75
2018-09-21T19:50:01.747Z,11.48
2018-09-21T19:52:30.452Z,9.00
2018-09-21T19:54:59.194Z,5.47
2018-09-21T19:57:28.625Z,7.58
2018-09-21T19:59:57.056Z,10.72
2018-09-21T20:02:26.331Z,13.95
2018-09-21T20:04:55.618Z,7.95
2018-09-21T20:07:24.864Z,8.65
2018-09-21T20:09:53.915Z,10.10
2018-09-21T20:12:24.450Z,10.32
2018-09-21T20:14:53.546Z,8.93
2018-09-21T20:17:21.930Z,9.28
2018-09-21T20:19:50.776Z,8.18
2018-09-21T20:22:20.238Z,10.75
2018-09-21T20:24:49.382Z,12.15
2018-09-21T20:27:18.469Z,11.33
2018-09-21T20:29:47.553Z,11.75
2018-09-21T20:32:22.224Z,11.12
2018-09-21T20:34:50.970Z,9.38
2018-09-21T20:37:20.100Z,6.37
2018-09-21T20:39:49.383Z,14.33
2018-09-21T20:42:18.616Z,10.38
2018-09-21T20:44:47.384Z,9.05
2018-09-21T20:47:16.658Z,11.03
2018-09-21T20:49:45.688Z,7.58
2018-09-21T20:52:14.374Z,9.95
2018-09-21T20:54:43.077Z,7.45
2018-09-21T20:57:12.276Z,10.68
2018-09-21T20:59:41.360Z,9.55
2018-09-21T21:02:09.796Z,6.85
2018-09-21T21:04:38.830Z,10.18
2018-09-21T21:07:07.893Z,6.28
2018-09-21T21:09:36.929Z,7.30
2018-09-21T21:12:05.656Z,6.92
2018-09-21T21:14:34.389Z,7.37
2018-09-21T21:17:04.558Z,7.95
2018-09-21T21:19:33.398Z,10.35
2018-09-21T21:22:02.200Z,5.22
2018-09-21T21:24:31.154Z,8.85
2018-09-21T21:27:00.210Z,9.13
2018-09-21T21:29:29.335Z,7.00
2018-09-21T21:31:58.072Z,8.23
2018-09-21T21:34:27.115Z,6.50
2018-09-21T21:36:55.890Z,6.00
2018-09-21T21:39:24.643Z,8.55
2018-09-21T21:41:53.318Z,7.28
2018-09-21T21:44:21.737Z,4.90
2018-09-21T21:46:50.762Z,7.70
2018-09-21T21:49:19.979Z,10.20
2018-09-21T21:51:48.717Z,8.23
2018-09-21T21:54:17.809Z,7.42
2018-09-21T21:56:46.557Z,6.95
2018-09-21T21:59:15.289Z,4.92
2018-09-21T22:01:45.981Z,5.08
2018-09-21T22:04:16.311Z,7.35
2018-09-21T22:06:45.423Z,5.30
2018-09-21T22:09:13.778Z,7.47
2018-09-21T22:11:48.382Z,4.40
2018-09-21T22:14:17.555Z,6.28
2018-09-21T22:16:46.625Z,6.33
2018-09-21T22:19:16.029Z,5.45
2018-09-21T22:21:45.130Z,5.58
2018-09-21T22:24:14.122Z,3.83
2018-09-21T22:26:43.234Z,9.33
2018-09-21T22:29:12.496Z,6.20
2018-09-21T22:31:41.478Z,7.00
2018-09-21T22:34:10.499Z,7.05
2018-09-21T22:36:39.215Z,4.00
2018-09-21T22:39:08.822Z,8.40
2018-09-21T22:41:37.570Z,7.58
2018-09-21T22:44:06.624Z,5.80
2018-09-21T22:46:35.459Z,6.62
2018-09-21T22:49:07.381Z,4.33
2018-09-21T22:51:36.466Z,12.00
2018-09-21T22:54:04.829Z,5.58
2018-09-21T22:56:33.830Z,5.35
2018-09-21T22:59:02.541Z,6.05
2018-09-21T23:01:31.259Z,6.47
2018-09-21T23:03:59.974Z,4.22
2018-09-21T23:06:29.043Z,6.03
2018-09-21T23:08:57.769Z,5.92
2018-09-21T23:11:26.900Z,4.95
2018-09-21T23:13:55.974Z,7.28
2018-09-21T23:16:24.296Z,7.92
2018-09-21T23:18:53.335Z,4.08
2018-09-21T23:21:21.703Z,5.90
2018-09-21T23:23:50.791Z,4.50
2018-09-21T23:26:19.548Z,6.45
2018-09-21T23:28:47.967Z,4.25
2018-09-21T23:31:16.343Z,4.70
2018-09-21T23:33:45.436Z,6.12
2018-09-21T23:36:14.512Z,6.78
2018-09-21T23:38:42.910Z,5.30
2018-09-21T23:41:11.955Z,5.47
2018-09-21T23:43:41.001Z,5.42
2018-09-21T23:46:09.325Z,3.67
2018-09-21T23:48:38.644Z,5.60
2018-09-21T23:51:08.656Z,5.53
2018-09-21T23:53:37.841Z,14.38
2018-09-21T23:56:07.363Z,3.22
2018-09-21T23:58:36.416Z,5.80
